Map

Track Data

SID SEASON NUMBER BASIN SUBBASIN NAME ISO_TIME NATURE LAT LON WMO_WIND WMO_PRES WMO_AGENCY TRACK_TYPE DIST2LAND LANDFALL IFLAG USA_AGENCY USA_ATCF_ID USA_LAT USA_LON USA_RECORD USA_STATUS USA_WIND USA_PRES USA_SSHS USA_R34_NE USA_R34_SE USA_R34_SW USA_R34_NW USA_R50_NE USA_R50_SE USA_R50_SW USA_R50_NW USA_R64_NE USA_R64_SE USA_R64_SW USA_R64_NW USA_POCI USA_ROCI USA_RMW USA_EYE TOKYO_LAT TOKYO_LON TOKYO_GRADE TOKYO_WIND TOKYO_PRES TOKYO_R50_DIR TOKYO_R50_LONG TOKYO_R50_SHORT TOKYO_R30_DIR TOKYO_R30_LONG TOKYO_R30_SHORT TOKYO_LAND CMA_LAT CMA_LON CMA_CAT CMA_WIND CMA_PRES HKO_LAT HKO_LON HKO_CAT HKO_WIND HKO_PRES NEWDELHI_LAT NEWDELHI_LON NEWDELHI_GRADE NEWDELHI_WIND NEWDELHI_PRES NEWDELHI_CI NEWDELHI_DP NEWDELHI_POCI REUNION_LAT REUNION_LON REUNION_TYPE REUNION_WIND REUNION_PRES REUNION_TNUM REUNION_CI REUNION_RMW REUNION_R34_NE REUNION_R34_SE REUNION_R34_SW REUNION_R34_NW REUNION_R50_NE REUNION_R50_SE REUNION_R50_SW REUNION_R50_NW REUNION_R64_NE REUNION_R64_SE REUNION_R64_SW REUNION_R64_NW BOM_LAT BOM_LON BOM_TYPE BOM_WIND BOM_PRES BOM_TNUM BOM_CI BOM_RMW BOM_R34_NE BOM_R34_SE BOM_R34_SW BOM_R34_NW BOM_R50_NE BOM_R50_SE BOM_R50_SW BOM_R50_NW BOM_R64_NE BOM_R64_SE BOM_R64_SW BOM_R64_NW BOM_ROCI BOM_POCI BOM_EYE BOM_POS_METHOD BOM_PRES_METHOD NADI_LAT NADI_LON NADI_CAT NADI_WIND NADI_PRES WELLINGTON_LAT WELLINGTON_LON WELLINGTON_WIND WELLINGTON_PRES DS824_LAT DS824_LON DS824_STAGE DS824_WIND DS824_PRES TD9636_LAT TD9636_LON TD9636_STAGE TD9636_WIND TD9636_PRES TD9635_LAT TD9635_LON TD9635_WIND TD9635_PRES TD9635_ROCI NEUMANN_LAT NEUMANN_LON NEUMANN_CLASS NEUMANN_WIND NEUMANN_PRES MLC_LAT MLC_LON MLC_CLASS MLC_WIND MLC_PRES USA_GUST BOM_GUST BOM_GUST_PER REUNION_GUST REUNION_GUST_PER USA_SEAHGT USA_SEARAD_NE USA_SEARAD_SE USA_SEARAD_SW USA_SEARAD_NW STORM_SPEED STORM_DIR
1885345S13069 1886 56 SI MM NOT_NAMED 1885-12-11 06:00:00 NR -12.7000 68.9000 reunion main 1452 1428 _____O________ -1 -12.7000 68.9000 99 9.90000 5 232
1885345S13069 1886 56 SI MM NOT_NAMED 1885-12-11 09:00:00 NR -12.8505 68.6961 main 1422 1398 _____P________ -1 -12.8505 68.6961 99 5 233
1885345S13069 1886 56 SI MM NOT_NAMED 1885-12-11 12:00:00 NR -13.0020 68.4912 main 1398 1374 _____P________ -1 -13.0020 68.4912 99 5 233
1885345S13069 1886 56 SI MM NOT_NAMED 1885-12-11 15:00:00 NR -13.1558 68.2846 main 1367 1343 _____P________ -1 -13.1558 68.2846 99 5 233
1885345S13069 1886 56 SI MM NOT_NAMED 1885-12-11 18:00:00 NR -13.3130 68.0756 main 1343 1312 _____P________ -1 -13.3130 68.0756 99 5 232
1885345S13069 1886 56 SI MM NOT_NAMED 1885-12-11 21:00:00 NR -13.4748 67.8633 main 1312 1288 _____P________ -1 -13.4748 67.8633 99 5 232
1885345S13069 1886 56 SI MM NOT_NAMED 1885-12-12 00:00:00 NR -13.6424 67.6472 main 1279 1249 _____P________ -1 -13.6424 67.6472 99 5 231
1885345S13069 1886 56 SI MM NOT_NAMED 1885-12-12 03:00:00 NR -13.8171 67.4263 main 1249 1218 _____P________ -1 -13.8171 67.4263 99 6 231
1885345S13069 1886 56 SI MM NOT_NAMED 1885-12-12 06:00:00 NR -14.0000 67.2000 reunion main 1218 1188 _____O________ -1 -14.0000 67.2000 99 9.90000 6 230
1885345S13069 1886 56 SI MM NOT_NAMED 1885-12-12 09:00:00 NR -14.1919 66.9676 main 1188 1148 _____P________ -1 -14.1919 66.9676 99 6 229
1885345S13069 1886 56 SI MM NOT_NAMED 1885-12-12 12:00:00 NR -14.3920 66.7293 main 1148 1118 _____P________ -1 -14.3920 66.7293 99 6 229
1885345S13069 1886 56 SI MM NOT_NAMED 1885-12-12 15:00:00 NR -14.5991 66.4856 main 1118 1087 _____P________ -1 -14.5991 66.4856 99 6 229
1885345S13069 1886 56 SI MM NOT_NAMED 1885-12-12 18:00:00 NR -14.8122 66.2369 main 1078 1048 _____P________ -1 -14.8122 66.2369 99 7 228
1885345S13069 1886 56 SI MM NOT_NAMED 1885-12-12 21:00:00 NR -15.0300 65.9835 main 1048 1009 _____P________ -1 -15.0300 65.9835 99 7 228
1885345S13069 1886 56 SI MM NOT_NAMED 1885-12-13 00:00:00 NR -15.2513 65.7260 main 1003 972 _____P________ -1 -15.2513 65.7260 99 7 228
1885345S13069 1886 56 SI MM NOT_NAMED 1885-12-13 03:00:00 NR -15.4750 65.4647 main 972 933 _____P________ -1 -15.4750 65.4647 99 7 229
1885345S13069 1886 56 SI MM NOT_NAMED 1885-12-13 06:00:00 NR -15.7000 65.2000 reunion main 933 903 _____O________ -1 -15.7000 65.2000 99 9.90000 7 229
1885345S13069 1886 56 SI MM NOT_NAMED 1885-12-13 09:00:00 NR -15.9066 64.9449 main 894 864 _____P________ -1 -15.9066 64.9449 99 6 230
1885345S13069 1886 56 SI MM NOT_NAMED 1885-12-13 12:00:00 NR -16.1137 64.6870 main 864 825 _____P________ -1 -16.1137 64.6870 99 7 230
1885345S13069 1886 56 SI MM NOT_NAMED 1885-12-13 15:00:00 NR -16.3237 64.4249 main 825 795 _____P________ -1 -16.3237 64.4249 99 7 230
1885345S13069 1886 56 SI MM NOT_NAMED 1885-12-13 18:00:00 NR -16.5390 64.1572 main 795 756 _____P________ -1 -16.5390 64.1572 99 7 230
1885345S13069 1886 56 SI MM NOT_NAMED 1885-12-13 21:00:00 NR -16.7619 63.8824 main 750 712 _____P________ -1 -16.7619 63.8824 99 7 230
1885345S13069 1886 56 SI MM NOT_NAMED 1885-12-14 00:00:00 NR -16.9948 63.5989 main 712 673 _____P________ -1 -16.9948 63.5989 99 7 229
1885345S13069 1886 56 SI MM NOT_NAMED 1885-12-14 03:00:00 NR -17.2400 63.3053 main 673 629 _____P________ -1 -17.2400 63.3053 99 8 229
1885345S13069 1886 56 SI MM NOT_NAMED 1885-12-14 06:00:00 NR -17.5000 63.0000 reunion main 629 585 _____O________ -1 -17.5000 63.0000 99 9.90000 8 229
1885345S13069 1886 56 SI MM NOT_NAMED 1885-12-14 09:00:00 NR -17.7766 62.6592 main 585 532 _____P________ -1 -17.7766 62.6592 99 9 229
1885345S13069 1886 56 SI MM NOT_NAMED 1885-12-14 12:00:00 NR -18.0675 62.3034 main 532 489 _____P________ -1 -18.0675 62.3034 99 9 229
1885345S13069 1886 56 SI MM NOT_NAMED 1885-12-14 15:00:00 NR -18.3707 61.9387 main 479 436 _____P________ -1 -18.3707 61.9387 99 9 228
1885345S13069 1886 56 SI MM NOT_NAMED 1885-12-14 18:00:00 NR -18.6840 61.5713 main 436 384 _____P________ -1 -18.6840 61.5713 99 9 227
1885345S13069 1886 56 SI MM NOT_NAMED 1885-12-14 21:00:00 NR -19.0055 61.2074 main 384 343 _____P________ -1 -19.0055 61.2074 99 9 226
1885345S13069 1886 56 SI MM NOT_NAMED 1885-12-15 00:00:00 NR -19.3333 60.8533 main 343 292 _____P________ -1 -19.3333 60.8533 99 9 225
1885345S13069 1886 56 SI MM NOT_NAMED 1885-12-15 03:00:00 NR -19.6654 60.5153 main 289 252 _____P________ -1 -19.6654 60.5153 99 9 223
1885345S13069 1886 56 SI MM NOT_NAMED 1885-12-15 06:00:00 NR -20.0000 60.2000 reunion main 252 218 _____O________ -1 -20.0000 60.2000 99 9.90000 9 221
1885345S13069 1886 56 SI MM NOT_NAMED 1885-12-15 09:00:00 NR -20.3103 59.9195 main 218 199 _____P________ -1 -20.3103 59.9195 99 8 219
1885345S13069 1886 56 SI MM NOT_NAMED 1885-12-15 12:00:00 NR -20.6229 59.6594 main 200 179 _____P________ -1 -20.6229 59.6594 99 8 217
1885345S13069 1886 56 SI MM NOT_NAMED 1885-12-15 15:00:00 NR -20.9407 59.4176 main 179 174 _____P________ -1 -20.9407 59.4176 99 8 214
1885345S13069 1886 56 SI MM NOT_NAMED 1885-12-15 18:00:00 NR -21.2662 59.1917 main 179 170 _____P________ -1 -21.2662 59.1917 99 8 212
1885345S13069 1886 56 SI MM NOT_NAMED 1885-12-15 21:00:00 NR -21.6022 58.9793 main 182 182 _____P________ -1 -21.6022 58.9793 99 8 209
1885345S13069 1886 56 SI MM NOT_NAMED 1885-12-16 00:00:00 NR -21.9514 58.7782 main 202 197 _____P________ -1 -21.9514 58.7782 99 8 207
1885345S13069 1886 56 SI MM NOT_NAMED 1885-12-16 03:00:00 NR -22.3165 58.5859 main 221 221 _____P________ -1 -22.3165 58.5859 99 8 205
1885345S13069 1886 56 SI MM NOT_NAMED 1885-12-16 06:00:00 NR -22.7000 58.4000 reunion main 256 256 _____O________ -1 -22.7000 58.4000 99 9.90000 9 204
1885345S13069 1886 56 SI MM NOT_NAMED 1885-12-16 09:00:00 NR -23.1424 58.1918 main 295 295 _____P________ -1 -23.1424 58.1918 99 10 203
1885345S13069 1886 56 SI MM NOT_NAMED 1885-12-16 12:00:00 NR -23.6081 57.9903 main 342 342 _____P________ -1 -23.6081 57.9903 99 10 201
1885345S13069 1886 56 SI MM NOT_NAMED 1885-12-16 15:00:00 NR -24.0865 57.7967 main 374 374 _____P________ -1 -24.0865 57.7966 99 10 200
1885345S13069 1886 56 SI MM NOT_NAMED 1885-12-16 18:00:00 NR -24.5672 57.6124 main 412 412 _____P________ -1 -24.5672 57.6124 99 10 199
1885345S13069 1886 56 SI MM NOT_NAMED 1885-12-16 21:00:00 NR -25.0395 57.4390 main 442 442 _____P________ -1 -25.0395 57.4390 99 10 198
1885345S13069 1886 56 SI MM NOT_NAMED 1885-12-17 00:00:00 NR -25.4928 57.2780 main 489 489 _____P________ -1 -25.4928 57.2780 99 9 197
1885345S13069 1886 56 SI MM NOT_NAMED 1885-12-17 03:00:00 NR -25.9165 57.1311 main 525 525 _____P________ -1 -25.9165 57.1311 99 8 197
1885345S13069 1886 56 SI MM NOT_NAMED 1885-12-17 06:00:00 NR -26.3000 57.0000 reunion main 565 565 _____O________ -1 -26.3000 57.0000 99 9.90000 8 197
1885345S13069 1886 56 SI MM NOT_NAMED 1885-12-17 09:00:00 NR -26.6356 56.8858 main 595 595 _____P________ -1 -26.6356 56.8858 99 7 197
1885345S13069 1886 56 SI MM NOT_NAMED 1885-12-17 12:00:00 NR -26.9270 56.7872 main 626 626 _____P________ -1 -26.9270 56.7872 99 6 197
1885345S13069 1886 56 SI MM NOT_NAMED 1885-12-17 15:00:00 NR -27.1803 56.7020 main 657 657 _____P________ -1 -27.1803 56.7020 99 5 197
1885345S13069 1886 56 SI MM NOT_NAMED 1885-12-17 18:00:00 NR -27.4021 56.6280 main 678 678 _____P________ -1 -27.4021 56.6280 99 4 197
1885345S13069 1886 56 SI MM NOT_NAMED 1885-12-17 21:00:00 NR -27.5987 56.5631 main 700 698 _____P________ -1 -27.5987 56.5631 99 4 196
1885345S13069 1886 56 SI MM NOT_NAMED 1885-12-18 00:00:00 NR -27.7763 56.5050 main 720 720 _____P________ -1 -27.7763 56.5050 99 4 196
1885345S13069 1886 56 SI MM NOT_NAMED 1885-12-18 03:00:00 NR -27.9413 56.4514 main 731 731 _____P________ -1 -27.9413 56.4514 99 3 195
1885345S13069 1886 56 SI MM NOT_NAMED 1885-12-18 06:00:00 NR -28.1000 56.4000 reunion main 752 _____O________ -1 -28.1000 56.4000 99 9.90000 3 193

About IBTrACS Database

This database is a web-friendly format of International Best Track Archive for Climate Stewardship (IBTrACS), a global best track data archive curated by NOAA dating back to 1842.

Updated: 2021-11-26